<?xml version="1.0" encoding="UTF-8" standalone="no" ?>
<gpx xmlns="http://www.topografix.com/GPX/1/1" xmlns:xsi="http://www.w3.org/2001/XMLSchema-instance" xsi:schemaLocation="http://www.topografix.com/GPX/1/1 http://www.topografix.com/GPX/1/1/gpx.xsd" version="1.1" creator="VisuGPX - https://www.visugpx.com">
  <metadata>
    <name>2022-06-09 18:31</name>
    <desc><![CDATA[<p>Heure de départ: 06/09/2022 18:31<br/>Heure d'arrivée: 06/09/2022 18:48<br/>Distance: 8 km (00:17)<br/>Temps déplacement: 00:17<br/>Vitesse moyenne: 27,55 km/h<br/>Vitesse moyenne mouv.: 27,98 km/h<br/>Vitesse Max.: 61,61 km/h<br/>Altitude minimale: 213 m<br/>Altitude maximale: 299 m<br/>Vitesse de montée: 804 m/h<br/>Vitesse de descente: -885,6 m/h<br/>Gain d'altitude: 103 m<br/>Perte d'altitude: -100 m<br/>Temps de montée: 00:07<br/>Temps de descente: 00:06<br/></p><hr align="center" width="480" style="height: 2px; width: 517px"/>]]></desc>
  </metadata>
  <trk>
    <name><![CDATA[2022-06-09 18:31]]></name>
    <desc><![CDATA[<p>Heure de départ: 06/09/2022 18:31<br/>Heure d'arrivée: 06/09/2022 18:48<br/>Distance: 8 km (00:17)<br/>Temps déplacement: 00:17<br/>Vitesse moyenne: 27,55 km/h<br/>Vitesse moyenne mouv.: 27,98 km/h<br/>Vitesse Max.: 61,61 km/h<br/>Altitude minimale: 213 m<br/>Altitude maximale: 299 m<br/>Vitesse de montée: 804 m/h<br/>Vitesse de descente: -885,6 m/h<br/>Gain d'altitude: 103 m<br/>Perte d'altitude: -100 m<br/>Temps de montée: 00:07<br/>Temps de descente: 00:06<br/></p><hr align="center" width="480" style="height: 2px; width: 517px"/>]]></desc>
    <trkseg>
      <trkpt lat="47.71619" lon="3.68247">
        <ele>281.05</ele>
        <time>2022-06-09T16:31:20Z</time>
      </trkpt>
      <trkpt lat="47.71627" lon="3.68219">
        <ele>285.88</ele>
        <time>2022-06-09T16:31:27Z</time>
      </trkpt>
      <trkpt lat="47.71626" lon="3.68187">
        <ele>285.6</ele>
        <time>2022-06-09T16:31:30Z</time>
      </trkpt>
      <trkpt lat="47.71625" lon="3.68154">
        <ele>284.09</ele>
        <time>2022-06-09T16:31:33Z</time>
      </trkpt>
      <trkpt lat="47.71624" lon="3.68119">
        <ele>283.37</ele>
        <time>2022-06-09T16:31:36Z</time>
      </trkpt>
      <trkpt lat="47.71623" lon="3.68089">
        <ele>282.07</ele>
        <time>2022-06-09T16:31:39Z</time>
      </trkpt>
      <trkpt lat="47.7162" lon="3.68058">
        <ele>278.34</ele>
        <time>2022-06-09T16:31:44Z</time>
      </trkpt>
      <trkpt lat="47.71605" lon="3.68035">
        <ele>275.45</ele>
        <time>2022-06-09T16:31:50Z</time>
      </trkpt>
      <trkpt lat="47.71586" lon="3.68024">
        <ele>271.93</ele>
        <time>2022-06-09T16:31:54Z</time>
      </trkpt>
      <trkpt lat="47.71567" lon="3.6801">
        <ele>267.56</ele>
        <time>2022-06-09T16:31:58Z</time>
      </trkpt>
      <trkpt lat="47.71557" lon="3.67985">
        <ele>263.89</ele>
        <time>2022-06-09T16:32:02Z</time>
      </trkpt>
      <trkpt lat="47.71548" lon="3.67952">
        <ele>260.47</ele>
        <time>2022-06-09T16:32:06Z</time>
      </trkpt>
      <trkpt lat="47.71541" lon="3.67922">
        <ele>256.97</ele>
        <time>2022-06-09T16:32:09Z</time>
      </trkpt>
      <trkpt lat="47.71533" lon="3.67892">
        <ele>253.74</ele>
        <time>2022-06-09T16:32:12Z</time>
      </trkpt>
      <trkpt lat="47.71523" lon="3.67863">
        <ele>251.15</ele>
        <time>2022-06-09T16:32:15Z</time>
      </trkpt>
      <trkpt lat="47.71511" lon="3.67831">
        <ele>247.65</ele>
        <time>2022-06-09T16:32:18Z</time>
      </trkpt>
      <trkpt lat="47.71498" lon="3.67799">
        <ele>245.29</ele>
        <time>2022-06-09T16:32:21Z</time>
      </trkpt>
      <trkpt lat="47.71488" lon="3.67768">
        <ele>243.03</ele>
        <time>2022-06-09T16:32:24Z</time>
      </trkpt>
      <trkpt lat="47.71479" lon="3.67742">
        <ele>241.61</ele>
        <time>2022-06-09T16:32:28Z</time>
      </trkpt>
      <trkpt lat="47.71463" lon="3.6772">
        <ele>239.94</ele>
        <time>2022-06-09T16:32:33Z</time>
      </trkpt>
      <trkpt lat="47.71447" lon="3.67699">
        <ele>238.35</ele>
        <time>2022-06-09T16:32:36Z</time>
      </trkpt>
      <trkpt lat="47.71426" lon="3.67711">
        <ele>238.33</ele>
        <time>2022-06-09T16:32:42Z</time>
      </trkpt>
      <trkpt lat="47.7141" lon="3.67735">
        <ele>238.91</ele>
        <time>2022-06-09T16:32:46Z</time>
      </trkpt>
      <trkpt lat="47.71396" lon="3.67756">
        <ele>240.3</ele>
        <time>2022-06-09T16:32:49Z</time>
      </trkpt>
      <trkpt lat="47.71382" lon="3.67775">
        <ele>241.26</ele>
        <time>2022-06-09T16:32:52Z</time>
      </trkpt>
      <trkpt lat="47.71366" lon="3.67795">
        <ele>241.95</ele>
        <time>2022-06-09T16:32:55Z</time>
      </trkpt>
      <trkpt lat="47.71348" lon="3.67811">
        <ele>242.16</ele>
        <time>2022-06-09T16:32:58Z</time>
      </trkpt>
      <trkpt lat="47.71326" lon="3.67813">
        <ele>242.1</ele>
        <time>2022-06-09T16:33:01Z</time>
      </trkpt>
      <trkpt lat="47.71301" lon="3.67808">
        <ele>242.81</ele>
        <time>2022-06-09T16:33:04Z</time>
      </trkpt>
      <trkpt lat="47.71277" lon="3.67798">
        <ele>243.46</ele>
        <time>2022-06-09T16:33:07Z</time>
      </trkpt>
      <trkpt lat="47.71253" lon="3.67786">
        <ele>244.63</ele>
        <time>2022-06-09T16:33:10Z</time>
      </trkpt>
      <trkpt lat="47.71229" lon="3.67778">
        <ele>245.98</ele>
        <time>2022-06-09T16:33:13Z</time>
      </trkpt>
      <trkpt lat="47.71204" lon="3.67774">
        <ele>247.75</ele>
        <time>2022-06-09T16:33:16Z</time>
      </trkpt>
      <trkpt lat="47.71179" lon="3.67768">
        <ele>249.1</ele>
        <time>2022-06-09T16:33:19Z</time>
      </trkpt>
      <trkpt lat="47.71159" lon="3.67762">
        <ele>249.4</ele>
        <time>2022-06-09T16:33:22Z</time>
      </trkpt>
      <trkpt lat="47.71138" lon="3.67759">
        <ele>249.04</ele>
        <time>2022-06-09T16:33:26Z</time>
      </trkpt>
      <trkpt lat="47.71119" lon="3.67756">
        <ele>249.09</ele>
        <time>2022-06-09T16:33:30Z</time>
      </trkpt>
      <trkpt lat="47.71098" lon="3.6775">
        <ele>249.6</ele>
        <time>2022-06-09T16:33:34Z</time>
      </trkpt>
      <trkpt lat="47.71076" lon="3.67741">
        <ele>249.85</ele>
        <time>2022-06-09T16:33:38Z</time>
      </trkpt>
      <trkpt lat="47.71055" lon="3.67726">
        <ele>250.39</ele>
        <time>2022-06-09T16:33:42Z</time>
      </trkpt>
      <trkpt lat="47.71035" lon="3.6771">
        <ele>251.13</ele>
        <time>2022-06-09T16:33:46Z</time>
      </trkpt>
      <trkpt lat="47.71019" lon="3.67697">
        <ele>252</ele>
        <time>2022-06-09T16:33:50Z</time>
      </trkpt>
      <trkpt lat="47.70999" lon="3.67683">
        <ele>252.19</ele>
        <time>2022-06-09T16:33:55Z</time>
      </trkpt>
      <trkpt lat="47.70983" lon="3.67668">
        <ele>251.68</ele>
        <time>2022-06-09T16:33:58Z</time>
      </trkpt>
      <trkpt lat="47.70963" lon="3.67649">
        <ele>251.06</ele>
        <time>2022-06-09T16:34:01Z</time>
      </trkpt>
      <trkpt lat="47.70941" lon="3.6763">
        <ele>250.11</ele>
        <time>2022-06-09T16:34:04Z</time>
      </trkpt>
      <trkpt lat="47.70919" lon="3.67616">
        <ele>249.43</ele>
        <time>2022-06-09T16:34:07Z</time>
      </trkpt>
      <trkpt lat="47.70898" lon="3.67605">
        <ele>248.47</ele>
        <time>2022-06-09T16:34:10Z</time>
      </trkpt>
      <trkpt lat="47.70875" lon="3.67593">
        <ele>247.74</ele>
        <time>2022-06-09T16:34:13Z</time>
      </trkpt>
      <trkpt lat="47.70851" lon="3.67581">
        <ele>247.41</ele>
        <time>2022-06-09T16:34:16Z</time>
      </trkpt>
      <trkpt lat="47.70826" lon="3.6757">
        <ele>246.4</ele>
        <time>2022-06-09T16:34:19Z</time>
      </trkpt>
      <trkpt lat="47.70806" lon="3.67556">
        <ele>245.99</ele>
        <time>2022-06-09T16:34:22Z</time>
      </trkpt>
      <trkpt lat="47.70787" lon="3.67536">
        <ele>244.28</ele>
        <time>2022-06-09T16:34:25Z</time>
      </trkpt>
      <trkpt lat="47.70777" lon="3.67507">
        <ele>245.21</ele>
        <time>2022-06-09T16:34:28Z</time>
      </trkpt>
      <trkpt lat="47.70769" lon="3.67472">
        <ele>244.69</ele>
        <time>2022-06-09T16:34:31Z</time>
      </trkpt>
      <trkpt lat="47.70761" lon="3.67438">
        <ele>245.06</ele>
        <time>2022-06-09T16:34:34Z</time>
      </trkpt>
      <trkpt lat="47.70759" lon="3.67406">
        <ele>244.41</ele>
        <time>2022-06-09T16:34:37Z</time>
      </trkpt>
      <trkpt lat="47.70764" lon="3.67372">
        <ele>244.63</ele>
        <time>2022-06-09T16:34:40Z</time>
      </trkpt>
      <trkpt lat="47.70772" lon="3.67337">
        <ele>244.29</ele>
        <time>2022-06-09T16:34:43Z</time>
      </trkpt>
      <trkpt lat="47.70776" lon="3.673">
        <ele>243.61</ele>
        <time>2022-06-09T16:34:46Z</time>
      </trkpt>
      <trkpt lat="47.70785" lon="3.67267">
        <ele>240.35</ele>
        <time>2022-06-09T16:34:49Z</time>
      </trkpt>
      <trkpt lat="47.70799" lon="3.67243">
        <ele>241.1</ele>
        <time>2022-06-09T16:34:52Z</time>
      </trkpt>
      <trkpt lat="47.70812" lon="3.67214">
        <ele>241.71</ele>
        <time>2022-06-09T16:34:55Z</time>
      </trkpt>
      <trkpt lat="47.70814" lon="3.67182">
        <ele>243.57</ele>
        <time>2022-06-09T16:34:58Z</time>
      </trkpt>
      <trkpt lat="47.70811" lon="3.67148">
        <ele>242.39</ele>
        <time>2022-06-09T16:35:01Z</time>
      </trkpt>
      <trkpt lat="47.70809" lon="3.67121">
        <ele>240.63</ele>
        <time>2022-06-09T16:35:04Z</time>
      </trkpt>
      <trkpt lat="47.70803" lon="3.67089">
        <ele>238.79</ele>
        <time>2022-06-09T16:35:11Z</time>
      </trkpt>
      <trkpt lat="47.708" lon="3.67062">
        <ele>238.94</ele>
        <time>2022-06-09T16:35:14Z</time>
      </trkpt>
      <trkpt lat="47.70796" lon="3.67029">
        <ele>238.34</ele>
        <time>2022-06-09T16:35:17Z</time>
      </trkpt>
      <trkpt lat="47.70792" lon="3.66998">
        <ele>238.13</ele>
        <time>2022-06-09T16:35:20Z</time>
      </trkpt>
      <trkpt lat="47.70783" lon="3.66969">
        <ele>238.07</ele>
        <time>2022-06-09T16:35:23Z</time>
      </trkpt>
      <trkpt lat="47.70766" lon="3.66942">
        <ele>237.97</ele>
        <time>2022-06-09T16:35:26Z</time>
      </trkpt>
      <trkpt lat="47.70749" lon="3.66912">
        <ele>237.07</ele>
        <time>2022-06-09T16:35:29Z</time>
      </trkpt>
      <trkpt lat="47.70732" lon="3.66884">
        <ele>236.67</ele>
        <time>2022-06-09T16:35:32Z</time>
      </trkpt>
      <trkpt lat="47.70717" lon="3.66857">
        <ele>236.26</ele>
        <time>2022-06-09T16:35:35Z</time>
      </trkpt>
      <trkpt lat="47.70703" lon="3.66834">
        <ele>235.46</ele>
        <time>2022-06-09T16:35:38Z</time>
      </trkpt>
      <trkpt lat="47.70703" lon="3.66806">
        <ele>232.93</ele>
        <time>2022-06-09T16:35:44Z</time>
      </trkpt>
      <trkpt lat="47.70725" lon="3.66783">
        <ele>230.69</ele>
        <time>2022-06-09T16:35:47Z</time>
      </trkpt>
      <trkpt lat="47.70744" lon="3.66771">
        <ele>229.04</ele>
        <time>2022-06-09T16:35:49Z</time>
      </trkpt>
      <trkpt lat="47.70762" lon="3.66763">
        <ele>227.28</ele>
        <time>2022-06-09T16:35:51Z</time>
      </trkpt>
      <trkpt lat="47.7078" lon="3.66754">
        <ele>225.71</ele>
        <time>2022-06-09T16:35:53Z</time>
      </trkpt>
      <trkpt lat="47.70798" lon="3.66738">
        <ele>223.36</ele>
        <time>2022-06-09T16:35:57Z</time>
      </trkpt>
      <trkpt lat="47.70787" lon="3.66706">
        <ele>223.01</ele>
        <time>2022-06-09T16:36:03Z</time>
      </trkpt>
      <trkpt lat="47.70773" lon="3.6669">
        <ele>223.12</ele>
        <time>2022-06-09T16:36:06Z</time>
      </trkpt>
      <trkpt lat="47.70756" lon="3.66677">
        <ele>223.5</ele>
        <time>2022-06-09T16:36:09Z</time>
      </trkpt>
      <trkpt lat="47.70733" lon="3.66671">
        <ele>223.88</ele>
        <time>2022-06-09T16:36:13Z</time>
      </trkpt>
      <trkpt lat="47.70712" lon="3.66661">
        <ele>223.59</ele>
        <time>2022-06-09T16:36:17Z</time>
      </trkpt>
      <trkpt lat="47.70691" lon="3.66651">
        <ele>221.41</ele>
        <time>2022-06-09T16:36:22Z</time>
      </trkpt>
      <trkpt lat="47.70667" lon="3.66642">
        <ele>217.65</ele>
        <time>2022-06-09T16:36:26Z</time>
      </trkpt>
      <trkpt lat="47.70645" lon="3.66629">
        <ele>215.4</ele>
        <time>2022-06-09T16:36:29Z</time>
      </trkpt>
      <trkpt lat="47.70625" lon="3.66609">
        <ele>214.48</ele>
        <time>2022-06-09T16:36:32Z</time>
      </trkpt>
      <trkpt lat="47.70604" lon="3.66587">
        <ele>213.87</ele>
        <time>2022-06-09T16:36:35Z</time>
      </trkpt>
      <trkpt lat="47.70585" lon="3.66562">
        <ele>213.36</ele>
        <time>2022-06-09T16:36:38Z</time>
      </trkpt>
      <trkpt lat="47.70565" lon="3.66538">
        <ele>213.9</ele>
        <time>2022-06-09T16:36:41Z</time>
      </trkpt>
      <trkpt lat="47.70549" lon="3.66521">
        <ele>214.6</ele>
        <time>2022-06-09T16:36:43Z</time>
      </trkpt>
      <trkpt lat="47.70535" lon="3.66503">
        <ele>215.05</ele>
        <time>2022-06-09T16:36:45Z</time>
      </trkpt>
      <trkpt lat="47.70522" lon="3.66482">
        <ele>215.83</ele>
        <time>2022-06-09T16:36:47Z</time>
      </trkpt>
      <trkpt lat="47.70511" lon="3.66458">
        <ele>216.39</ele>
        <time>2022-06-09T16:36:49Z</time>
      </trkpt>
      <trkpt lat="47.70501" lon="3.6643">
        <ele>216.5</ele>
        <time>2022-06-09T16:36:51Z</time>
      </trkpt>
      <trkpt lat="47.70492" lon="3.66403">
        <ele>216.21</ele>
        <time>2022-06-09T16:36:53Z</time>
      </trkpt>
      <trkpt lat="47.70485" lon="3.66373">
        <ele>216.19</ele>
        <time>2022-06-09T16:36:55Z</time>
      </trkpt>
      <trkpt lat="47.70476" lon="3.66343">
        <ele>216.45</ele>
        <time>2022-06-09T16:36:57Z</time>
      </trkpt>
      <trkpt lat="47.70466" lon="3.66318">
        <ele>217.44</ele>
        <time>2022-06-09T16:36:59Z</time>
      </trkpt>
      <trkpt lat="47.70453" lon="3.66296">
        <ele>218.21</ele>
        <time>2022-06-09T16:37:01Z</time>
      </trkpt>
      <trkpt lat="47.70439" lon="3.66275">
        <ele>218.84</ele>
        <time>2022-06-09T16:37:03Z</time>
      </trkpt>
      <trkpt lat="47.70425" lon="3.66252">
        <ele>219.52</ele>
        <time>2022-06-09T16:37:05Z</time>
      </trkpt>
      <trkpt lat="47.70411" lon="3.66229">
        <ele>219.75</ele>
        <time>2022-06-09T16:37:07Z</time>
      </trkpt>
      <trkpt lat="47.70394" lon="3.66199">
        <ele>219.94</ele>
        <time>2022-06-09T16:37:10Z</time>
      </trkpt>
      <trkpt lat="47.7038" lon="3.66175">
        <ele>219.68</ele>
        <time>2022-06-09T16:37:13Z</time>
      </trkpt>
      <trkpt lat="47.70364" lon="3.66156">
        <ele>220.13</ele>
        <time>2022-06-09T16:37:16Z</time>
      </trkpt>
      <trkpt lat="47.70348" lon="3.66136">
        <ele>220.16</ele>
        <time>2022-06-09T16:37:19Z</time>
      </trkpt>
      <trkpt lat="47.70329" lon="3.66116">
        <ele>219.89</ele>
        <time>2022-06-09T16:37:22Z</time>
      </trkpt>
      <trkpt lat="47.70308" lon="3.661">
        <ele>220.01</ele>
        <time>2022-06-09T16:37:25Z</time>
      </trkpt>
      <trkpt lat="47.70286" lon="3.66089">
        <ele>220.54</ele>
        <time>2022-06-09T16:37:28Z</time>
      </trkpt>
      <trkpt lat="47.70264" lon="3.66078">
        <ele>220.9</ele>
        <time>2022-06-09T16:37:31Z</time>
      </trkpt>
      <trkpt lat="47.70246" lon="3.66062">
        <ele>220.72</ele>
        <time>2022-06-09T16:37:34Z</time>
      </trkpt>
      <trkpt lat="47.70226" lon="3.66055">
        <ele>220.1</ele>
        <time>2022-06-09T16:37:37Z</time>
      </trkpt>
      <trkpt lat="47.70207" lon="3.66054">
        <ele>219.86</ele>
        <time>2022-06-09T16:37:40Z</time>
      </trkpt>
      <trkpt lat="47.70194" lon="3.66075">
        <ele>219.98</ele>
        <time>2022-06-09T16:37:48Z</time>
      </trkpt>
      <trkpt lat="47.70209" lon="3.66098">
        <ele>222.29</ele>
        <time>2022-06-09T16:37:52Z</time>
      </trkpt>
      <trkpt lat="47.70225" lon="3.6611">
        <ele>224.35</ele>
        <time>2022-06-09T16:37:55Z</time>
      </trkpt>
      <trkpt lat="47.70241" lon="3.66124">
        <ele>226</ele>
        <time>2022-06-09T16:37:58Z</time>
      </trkpt>
      <trkpt lat="47.70254" lon="3.66145">
        <ele>227.46</ele>
        <time>2022-06-09T16:38:01Z</time>
      </trkpt>
      <trkpt lat="47.70266" lon="3.66173">
        <ele>228.29</ele>
        <time>2022-06-09T16:38:04Z</time>
      </trkpt>
      <trkpt lat="47.70276" lon="3.66206">
        <ele>229.34</ele>
        <time>2022-06-09T16:38:07Z</time>
      </trkpt>
      <trkpt lat="47.70283" lon="3.66242">
        <ele>230.41</ele>
        <time>2022-06-09T16:38:10Z</time>
      </trkpt>
      <trkpt lat="47.70294" lon="3.66266">
        <ele>230.79</ele>
        <time>2022-06-09T16:38:12Z</time>
      </trkpt>
      <trkpt lat="47.70304" lon="3.66289">
        <ele>231.65</ele>
        <time>2022-06-09T16:38:14Z</time>
      </trkpt>
      <trkpt lat="47.70315" lon="3.66311">
        <ele>232.07</ele>
        <time>2022-06-09T16:38:16Z</time>
      </trkpt>
      <trkpt lat="47.70327" lon="3.66341">
        <ele>232.5</ele>
        <time>2022-06-09T16:38:19Z</time>
      </trkpt>
      <trkpt lat="47.70338" lon="3.66371">
        <ele>233.71</ele>
        <time>2022-06-09T16:38:22Z</time>
      </trkpt>
      <trkpt lat="47.70347" lon="3.66405">
        <ele>234.48</ele>
        <time>2022-06-09T16:38:25Z</time>
      </trkpt>
      <trkpt lat="47.70352" lon="3.66442">
        <ele>235.22</ele>
        <time>2022-06-09T16:38:28Z</time>
      </trkpt>
      <trkpt lat="47.70358" lon="3.6648">
        <ele>235.68</ele>
        <time>2022-06-09T16:38:31Z</time>
      </trkpt>
      <trkpt lat="47.70367" lon="3.66515">
        <ele>237.54</ele>
        <time>2022-06-09T16:38:34Z</time>
      </trkpt>
      <trkpt lat="47.70375" lon="3.66545">
        <ele>239.29</ele>
        <time>2022-06-09T16:38:37Z</time>
      </trkpt>
      <trkpt lat="47.70376" lon="3.66574">
        <ele>240.68</ele>
        <time>2022-06-09T16:38:40Z</time>
      </trkpt>
      <trkpt lat="47.70375" lon="3.66604">
        <ele>241.87</ele>
        <time>2022-06-09T16:38:43Z</time>
      </trkpt>
      <trkpt lat="47.70362" lon="3.66627">
        <ele>242.81</ele>
        <time>2022-06-09T16:38:49Z</time>
      </trkpt>
      <trkpt lat="47.7034" lon="3.66642">
        <ele>241.98</ele>
        <time>2022-06-09T16:38:52Z</time>
      </trkpt>
      <trkpt lat="47.70322" lon="3.66653">
        <ele>241.61</ele>
        <time>2022-06-09T16:38:54Z</time>
      </trkpt>
      <trkpt lat="47.70302" lon="3.66666">
        <ele>240.95</ele>
        <time>2022-06-09T16:38:56Z</time>
      </trkpt>
      <trkpt lat="47.70281" lon="3.66679">
        <ele>240.84</ele>
        <time>2022-06-09T16:38:58Z</time>
      </trkpt>
      <trkpt lat="47.7026" lon="3.6669">
        <ele>240.57</ele>
        <time>2022-06-09T16:39:00Z</time>
      </trkpt>
      <trkpt lat="47.70239" lon="3.66702">
        <ele>240.5</ele>
        <time>2022-06-09T16:39:02Z</time>
      </trkpt>
      <trkpt lat="47.7022" lon="3.66711">
        <ele>240.21</ele>
        <time>2022-06-09T16:39:04Z</time>
      </trkpt>
      <trkpt lat="47.70201" lon="3.6672">
        <ele>239.64</ele>
        <time>2022-06-09T16:39:06Z</time>
      </trkpt>
      <trkpt lat="47.70182" lon="3.66726">
        <ele>239.07</ele>
        <time>2022-06-09T16:39:08Z</time>
      </trkpt>
      <trkpt lat="47.70164" lon="3.66729">
        <ele>238.38</ele>
        <time>2022-06-09T16:39:10Z</time>
      </trkpt>
      <trkpt lat="47.70145" lon="3.66731">
        <ele>237.48</ele>
        <time>2022-06-09T16:39:12Z</time>
      </trkpt>
      <trkpt lat="47.70127" lon="3.66734">
        <ele>236.78</ele>
        <time>2022-06-09T16:39:14Z</time>
      </trkpt>
      <trkpt lat="47.70105" lon="3.66749">
        <ele>235.88</ele>
        <time>2022-06-09T16:39:17Z</time>
      </trkpt>
      <trkpt lat="47.70093" lon="3.66773">
        <ele>235.74</ele>
        <time>2022-06-09T16:39:20Z</time>
      </trkpt>
      <trkpt lat="47.70094" lon="3.66802">
        <ele>236.79</ele>
        <time>2022-06-09T16:39:24Z</time>
      </trkpt>
      <trkpt lat="47.70101" lon="3.6683">
        <ele>237.8</ele>
        <time>2022-06-09T16:39:28Z</time>
      </trkpt>
      <trkpt lat="47.7011" lon="3.66857">
        <ele>238.34</ele>
        <time>2022-06-09T16:39:31Z</time>
      </trkpt>
      <trkpt lat="47.70119" lon="3.66888">
        <ele>239.28</ele>
        <time>2022-06-09T16:39:34Z</time>
      </trkpt>
      <trkpt lat="47.70128" lon="3.66911">
        <ele>239.65</ele>
        <time>2022-06-09T16:39:37Z</time>
      </trkpt>
      <trkpt lat="47.7014" lon="3.66935">
        <ele>240.44</ele>
        <time>2022-06-09T16:39:40Z</time>
      </trkpt>
      <trkpt lat="47.70154" lon="3.66962">
        <ele>240.83</ele>
        <time>2022-06-09T16:39:43Z</time>
      </trkpt>
      <trkpt lat="47.70171" lon="3.66984">
        <ele>241.81</ele>
        <time>2022-06-09T16:39:47Z</time>
      </trkpt>
      <trkpt lat="47.70185" lon="3.67008">
        <ele>243.98</ele>
        <time>2022-06-09T16:39:51Z</time>
      </trkpt>
      <trkpt lat="47.702" lon="3.67036">
        <ele>247.24</ele>
        <time>2022-06-09T16:39:55Z</time>
      </trkpt>
      <trkpt lat="47.70212" lon="3.67059">
        <ele>249.64</ele>
        <time>2022-06-09T16:39:58Z</time>
      </trkpt>
      <trkpt lat="47.70223" lon="3.67083">
        <ele>250.77</ele>
        <time>2022-06-09T16:40:01Z</time>
      </trkpt>
      <trkpt lat="47.70233" lon="3.67111">
        <ele>251.63</ele>
        <time>2022-06-09T16:40:04Z</time>
      </trkpt>
      <trkpt lat="47.70245" lon="3.67142">
        <ele>252.27</ele>
        <time>2022-06-09T16:40:07Z</time>
      </trkpt>
      <trkpt lat="47.70258" lon="3.67167">
        <ele>253.32</ele>
        <time>2022-06-09T16:40:10Z</time>
      </trkpt>
      <trkpt lat="47.70268" lon="3.6719">
        <ele>254.46</ele>
        <time>2022-06-09T16:40:13Z</time>
      </trkpt>
      <trkpt lat="47.70283" lon="3.67209">
        <ele>258.13</ele>
        <time>2022-06-09T16:40:19Z</time>
      </trkpt>
      <trkpt lat="47.70269" lon="3.6719">
        <ele>256.91</ele>
        <time>2022-06-09T16:41:19Z</time>
      </trkpt>
      <trkpt lat="47.70258" lon="3.67164">
        <ele>255.57</ele>
        <time>2022-06-09T16:41:27Z</time>
      </trkpt>
      <trkpt lat="47.70247" lon="3.67143">
        <ele>254.45</ele>
        <time>2022-06-09T16:41:30Z</time>
      </trkpt>
      <trkpt lat="47.70236" lon="3.67116">
        <ele>253.61</ele>
        <time>2022-06-09T16:41:33Z</time>
      </trkpt>
      <trkpt lat="47.70225" lon="3.67087">
        <ele>253.42</ele>
        <time>2022-06-09T16:41:36Z</time>
      </trkpt>
      <trkpt lat="47.70213" lon="3.6706">
        <ele>251.85</ele>
        <time>2022-06-09T16:41:39Z</time>
      </trkpt>
      <trkpt lat="47.70201" lon="3.67036">
        <ele>250.01</ele>
        <time>2022-06-09T16:41:42Z</time>
      </trkpt>
      <trkpt lat="47.70189" lon="3.67013">
        <ele>247.85</ele>
        <time>2022-06-09T16:41:45Z</time>
      </trkpt>
      <trkpt lat="47.70178" lon="3.66991">
        <ele>246.12</ele>
        <time>2022-06-09T16:41:48Z</time>
      </trkpt>
      <trkpt lat="47.70178" lon="3.67023">
        <ele>242.19</ele>
        <time>2022-06-09T16:42:00Z</time>
      </trkpt>
      <trkpt lat="47.70187" lon="3.67049">
        <ele>242.01</ele>
        <time>2022-06-09T16:42:02Z</time>
      </trkpt>
      <trkpt lat="47.70198" lon="3.6708">
        <ele>241.79</ele>
        <time>2022-06-09T16:42:04Z</time>
      </trkpt>
      <trkpt lat="47.7021" lon="3.67117">
        <ele>241.21</ele>
        <time>2022-06-09T16:42:06Z</time>
      </trkpt>
      <trkpt lat="47.70224" lon="3.67156">
        <ele>240.88</ele>
        <time>2022-06-09T16:42:08Z</time>
      </trkpt>
      <trkpt lat="47.70239" lon="3.67196">
        <ele>240.68</ele>
        <time>2022-06-09T16:42:10Z</time>
      </trkpt>
      <trkpt lat="47.70254" lon="3.67238">
        <ele>240.07</ele>
        <time>2022-06-09T16:42:12Z</time>
      </trkpt>
      <trkpt lat="47.70268" lon="3.67279">
        <ele>239.44</ele>
        <time>2022-06-09T16:42:14Z</time>
      </trkpt>
      <trkpt lat="47.70279" lon="3.67321">
        <ele>238.49</ele>
        <time>2022-06-09T16:42:16Z</time>
      </trkpt>
      <trkpt lat="47.70288" lon="3.67363">
        <ele>237.16</ele>
        <time>2022-06-09T16:42:18Z</time>
      </trkpt>
      <trkpt lat="47.70294" lon="3.67408">
        <ele>235</ele>
        <time>2022-06-09T16:42:20Z</time>
      </trkpt>
      <trkpt lat="47.70297" lon="3.67456">
        <ele>232.75</ele>
        <time>2022-06-09T16:42:22Z</time>
      </trkpt>
      <trkpt lat="47.70301" lon="3.67504">
        <ele>230.61</ele>
        <time>2022-06-09T16:42:24Z</time>
      </trkpt>
      <trkpt lat="47.70303" lon="3.67548">
        <ele>229.32</ele>
        <time>2022-06-09T16:42:26Z</time>
      </trkpt>
      <trkpt lat="47.70301" lon="3.6759">
        <ele>228.31</ele>
        <time>2022-06-09T16:42:28Z</time>
      </trkpt>
      <trkpt lat="47.70295" lon="3.67625">
        <ele>227.71</ele>
        <time>2022-06-09T16:42:30Z</time>
      </trkpt>
      <trkpt lat="47.70288" lon="3.67657">
        <ele>227.52</ele>
        <time>2022-06-09T16:42:32Z</time>
      </trkpt>
      <trkpt lat="47.70283" lon="3.67688">
        <ele>227.89</ele>
        <time>2022-06-09T16:42:34Z</time>
      </trkpt>
      <trkpt lat="47.7028" lon="3.67714">
        <ele>228.39</ele>
        <time>2022-06-09T16:42:37Z</time>
      </trkpt>
      <trkpt lat="47.70279" lon="3.67746">
        <ele>229.57</ele>
        <time>2022-06-09T16:42:45Z</time>
      </trkpt>
      <trkpt lat="47.70281" lon="3.67774">
        <ele>229.6</ele>
        <time>2022-06-09T16:42:48Z</time>
      </trkpt>
      <trkpt lat="47.70289" lon="3.67808">
        <ele>230.61</ele>
        <time>2022-06-09T16:42:51Z</time>
      </trkpt>
      <trkpt lat="47.70304" lon="3.67837">
        <ele>231.44</ele>
        <time>2022-06-09T16:42:54Z</time>
      </trkpt>
      <trkpt lat="47.70322" lon="3.67861">
        <ele>232.46</ele>
        <time>2022-06-09T16:42:57Z</time>
      </trkpt>
      <trkpt lat="47.70342" lon="3.67887">
        <ele>233.7</ele>
        <time>2022-06-09T16:43:00Z</time>
      </trkpt>
      <trkpt lat="47.70358" lon="3.67904">
        <ele>234.49</ele>
        <time>2022-06-09T16:43:02Z</time>
      </trkpt>
      <trkpt lat="47.70375" lon="3.67923">
        <ele>235.39</ele>
        <time>2022-06-09T16:43:04Z</time>
      </trkpt>
      <trkpt lat="47.70388" lon="3.67943">
        <ele>236.58</ele>
        <time>2022-06-09T16:43:06Z</time>
      </trkpt>
      <trkpt lat="47.70401" lon="3.67965">
        <ele>237.88</ele>
        <time>2022-06-09T16:43:09Z</time>
      </trkpt>
      <trkpt lat="47.70411" lon="3.67991">
        <ele>239.33</ele>
        <time>2022-06-09T16:43:14Z</time>
      </trkpt>
      <trkpt lat="47.70422" lon="3.68021">
        <ele>240.26</ele>
        <time>2022-06-09T16:43:18Z</time>
      </trkpt>
      <trkpt lat="47.70429" lon="3.68052">
        <ele>240.84</ele>
        <time>2022-06-09T16:43:21Z</time>
      </trkpt>
      <trkpt lat="47.70437" lon="3.68086">
        <ele>241.3</ele>
        <time>2022-06-09T16:43:24Z</time>
      </trkpt>
      <trkpt lat="47.70448" lon="3.68117">
        <ele>241.9</ele>
        <time>2022-06-09T16:43:27Z</time>
      </trkpt>
      <trkpt lat="47.7046" lon="3.68143">
        <ele>243.31</ele>
        <time>2022-06-09T16:43:30Z</time>
      </trkpt>
      <trkpt lat="47.70471" lon="3.68166">
        <ele>244.33</ele>
        <time>2022-06-09T16:43:33Z</time>
      </trkpt>
      <trkpt lat="47.70483" lon="3.6819">
        <ele>245.6</ele>
        <time>2022-06-09T16:43:36Z</time>
      </trkpt>
      <trkpt lat="47.70498" lon="3.68218">
        <ele>247.47</ele>
        <time>2022-06-09T16:43:39Z</time>
      </trkpt>
      <trkpt lat="47.70516" lon="3.68247">
        <ele>249.37</ele>
        <time>2022-06-09T16:43:42Z</time>
      </trkpt>
      <trkpt lat="47.70536" lon="3.68275">
        <ele>250.99</ele>
        <time>2022-06-09T16:43:45Z</time>
      </trkpt>
      <trkpt lat="47.7055" lon="3.68294">
        <ele>251.96</ele>
        <time>2022-06-09T16:43:47Z</time>
      </trkpt>
      <trkpt lat="47.70564" lon="3.68313">
        <ele>252.71</ele>
        <time>2022-06-09T16:43:49Z</time>
      </trkpt>
      <trkpt lat="47.70578" lon="3.68331">
        <ele>253.89</ele>
        <time>2022-06-09T16:43:51Z</time>
      </trkpt>
      <trkpt lat="47.70592" lon="3.68351">
        <ele>254.63</ele>
        <time>2022-06-09T16:43:53Z</time>
      </trkpt>
      <trkpt lat="47.70607" lon="3.68372">
        <ele>255.29</ele>
        <time>2022-06-09T16:43:55Z</time>
      </trkpt>
      <trkpt lat="47.70624" lon="3.68395">
        <ele>255.75</ele>
        <time>2022-06-09T16:43:57Z</time>
      </trkpt>
      <trkpt lat="47.70643" lon="3.6842">
        <ele>256</ele>
        <time>2022-06-09T16:43:59Z</time>
      </trkpt>
      <trkpt lat="47.70663" lon="3.6845">
        <ele>256.75</ele>
        <time>2022-06-09T16:44:01Z</time>
      </trkpt>
      <trkpt lat="47.70683" lon="3.68482">
        <ele>257.67</ele>
        <time>2022-06-09T16:44:03Z</time>
      </trkpt>
      <trkpt lat="47.70702" lon="3.68513">
        <ele>258.34</ele>
        <time>2022-06-09T16:44:05Z</time>
      </trkpt>
      <trkpt lat="47.70721" lon="3.68543">
        <ele>258.67</ele>
        <time>2022-06-09T16:44:07Z</time>
      </trkpt>
      <trkpt lat="47.7074" lon="3.68574">
        <ele>258.98</ele>
        <time>2022-06-09T16:44:09Z</time>
      </trkpt>
      <trkpt lat="47.70758" lon="3.68602">
        <ele>259.64</ele>
        <time>2022-06-09T16:44:11Z</time>
      </trkpt>
      <trkpt lat="47.70772" lon="3.68627">
        <ele>260.31</ele>
        <time>2022-06-09T16:44:13Z</time>
      </trkpt>
      <trkpt lat="47.70785" lon="3.68652">
        <ele>261.92</ele>
        <time>2022-06-09T16:44:16Z</time>
      </trkpt>
      <trkpt lat="47.708" lon="3.6863">
        <ele>264.34</ele>
        <time>2022-06-09T16:44:22Z</time>
      </trkpt>
      <trkpt lat="47.70803" lon="3.68603">
        <ele>265.88</ele>
        <time>2022-06-09T16:44:25Z</time>
      </trkpt>
      <trkpt lat="47.70807" lon="3.68574">
        <ele>268.25</ele>
        <time>2022-06-09T16:44:28Z</time>
      </trkpt>
      <trkpt lat="47.70811" lon="3.6854">
        <ele>271.25</ele>
        <time>2022-06-09T16:44:32Z</time>
      </trkpt>
      <trkpt lat="47.70813" lon="3.6851">
        <ele>274.01</ele>
        <time>2022-06-09T16:44:36Z</time>
      </trkpt>
      <trkpt lat="47.70813" lon="3.68478">
        <ele>277.84</ele>
        <time>2022-06-09T16:44:41Z</time>
      </trkpt>
      <trkpt lat="47.70811" lon="3.6845">
        <ele>279.95</ele>
        <time>2022-06-09T16:44:45Z</time>
      </trkpt>
      <trkpt lat="47.70808" lon="3.68413">
        <ele>281.84</ele>
        <time>2022-06-09T16:44:49Z</time>
      </trkpt>
      <trkpt lat="47.70806" lon="3.68387">
        <ele>283.76</ele>
        <time>2022-06-09T16:44:52Z</time>
      </trkpt>
      <trkpt lat="47.708" lon="3.68359">
        <ele>285.34</ele>
        <time>2022-06-09T16:44:56Z</time>
      </trkpt>
      <trkpt lat="47.70792" lon="3.68325">
        <ele>286.86</ele>
        <time>2022-06-09T16:45:00Z</time>
      </trkpt>
      <trkpt lat="47.70784" lon="3.68295">
        <ele>288.14</ele>
        <time>2022-06-09T16:45:03Z</time>
      </trkpt>
      <trkpt lat="47.70771" lon="3.68268">
        <ele>288.36</ele>
        <time>2022-06-09T16:45:06Z</time>
      </trkpt>
      <trkpt lat="47.70756" lon="3.68238">
        <ele>288.66</ele>
        <time>2022-06-09T16:45:09Z</time>
      </trkpt>
      <trkpt lat="47.70743" lon="3.68204">
        <ele>289.24</ele>
        <time>2022-06-09T16:45:12Z</time>
      </trkpt>
      <trkpt lat="47.70734" lon="3.68179">
        <ele>290.3</ele>
        <time>2022-06-09T16:45:15Z</time>
      </trkpt>
      <trkpt lat="47.70723" lon="3.68155">
        <ele>290.44</ele>
        <time>2022-06-09T16:45:22Z</time>
      </trkpt>
      <trkpt lat="47.70709" lon="3.6813">
        <ele>290.62</ele>
        <time>2022-06-09T16:45:26Z</time>
      </trkpt>
      <trkpt lat="47.70695" lon="3.68104">
        <ele>291.31</ele>
        <time>2022-06-09T16:45:30Z</time>
      </trkpt>
      <trkpt lat="47.70677" lon="3.68087">
        <ele>291.36</ele>
        <time>2022-06-09T16:45:35Z</time>
      </trkpt>
      <trkpt lat="47.7066" lon="3.68069">
        <ele>291.81</ele>
        <time>2022-06-09T16:45:41Z</time>
      </trkpt>
      <trkpt lat="47.70646" lon="3.68044">
        <ele>292.18</ele>
        <time>2022-06-09T16:45:46Z</time>
      </trkpt>
      <trkpt lat="47.70639" lon="3.68014">
        <ele>293.35</ele>
        <time>2022-06-09T16:45:51Z</time>
      </trkpt>
      <trkpt lat="47.70636" lon="3.67986">
        <ele>294.39</ele>
        <time>2022-06-09T16:45:55Z</time>
      </trkpt>
      <trkpt lat="47.70636" lon="3.67956">
        <ele>296.32</ele>
        <time>2022-06-09T16:46:00Z</time>
      </trkpt>
      <trkpt lat="47.7065" lon="3.67936">
        <ele>296.84</ele>
        <time>2022-06-09T16:46:04Z</time>
      </trkpt>
      <trkpt lat="47.70668" lon="3.67911">
        <ele>296.32</ele>
        <time>2022-06-09T16:46:08Z</time>
      </trkpt>
      <trkpt lat="47.70682" lon="3.67889">
        <ele>295.43</ele>
        <time>2022-06-09T16:46:11Z</time>
      </trkpt>
      <trkpt lat="47.70697" lon="3.67869">
        <ele>295.67</ele>
        <time>2022-06-09T16:46:14Z</time>
      </trkpt>
      <trkpt lat="47.70712" lon="3.67851">
        <ele>294.56</ele>
        <time>2022-06-09T16:46:17Z</time>
      </trkpt>
      <trkpt lat="47.70728" lon="3.67866">
        <ele>292.74</ele>
        <time>2022-06-09T16:46:25Z</time>
      </trkpt>
      <trkpt lat="47.70731" lon="3.67899">
        <ele>293.72</ele>
        <time>2022-06-09T16:46:28Z</time>
      </trkpt>
      <trkpt lat="47.70735" lon="3.67926">
        <ele>294.39</ele>
        <time>2022-06-09T16:46:30Z</time>
      </trkpt>
      <trkpt lat="47.7074" lon="3.67955">
        <ele>295.27</ele>
        <time>2022-06-09T16:46:32Z</time>
      </trkpt>
      <trkpt lat="47.70746" lon="3.67983">
        <ele>295.62</ele>
        <time>2022-06-09T16:46:34Z</time>
      </trkpt>
      <trkpt lat="47.70759" lon="3.68008">
        <ele>296.22</ele>
        <time>2022-06-09T16:46:37Z</time>
      </trkpt>
      <trkpt lat="47.70779" lon="3.68028">
        <ele>296.3</ele>
        <time>2022-06-09T16:46:41Z</time>
      </trkpt>
      <trkpt lat="47.70795" lon="3.68048">
        <ele>296.4</ele>
        <time>2022-06-09T16:46:44Z</time>
      </trkpt>
      <trkpt lat="47.70816" lon="3.68071">
        <ele>296.37</ele>
        <time>2022-06-09T16:46:47Z</time>
      </trkpt>
      <trkpt lat="47.70838" lon="3.68095">
        <ele>296.3</ele>
        <time>2022-06-09T16:46:50Z</time>
      </trkpt>
      <trkpt lat="47.70851" lon="3.68113">
        <ele>296.35</ele>
        <time>2022-06-09T16:46:52Z</time>
      </trkpt>
      <trkpt lat="47.70867" lon="3.68135">
        <ele>296.47</ele>
        <time>2022-06-09T16:46:54Z</time>
      </trkpt>
      <trkpt lat="47.70883" lon="3.68158">
        <ele>296.5</ele>
        <time>2022-06-09T16:46:56Z</time>
      </trkpt>
      <trkpt lat="47.709" lon="3.68181">
        <ele>296.54</ele>
        <time>2022-06-09T16:46:58Z</time>
      </trkpt>
      <trkpt lat="47.70915" lon="3.68203">
        <ele>296.72</ele>
        <time>2022-06-09T16:47:00Z</time>
      </trkpt>
      <trkpt lat="47.70928" lon="3.68227">
        <ele>297.14</ele>
        <time>2022-06-09T16:47:02Z</time>
      </trkpt>
      <trkpt lat="47.70941" lon="3.6825">
        <ele>297.71</ele>
        <time>2022-06-09T16:47:04Z</time>
      </trkpt>
      <trkpt lat="47.70954" lon="3.68274">
        <ele>298.39</ele>
        <time>2022-06-09T16:47:06Z</time>
      </trkpt>
      <trkpt lat="47.70968" lon="3.68293">
        <ele>298.63</ele>
        <time>2022-06-09T16:47:08Z</time>
      </trkpt>
      <trkpt lat="47.70988" lon="3.68318">
        <ele>298.91</ele>
        <time>2022-06-09T16:47:11Z</time>
      </trkpt>
      <trkpt lat="47.71008" lon="3.68336">
        <ele>299.67</ele>
        <time>2022-06-09T16:47:14Z</time>
      </trkpt>
      <trkpt lat="47.71026" lon="3.68347">
        <ele>299.62</ele>
        <time>2022-06-09T16:47:17Z</time>
      </trkpt>
      <trkpt lat="47.71046" lon="3.68355">
        <ele>299.53</ele>
        <time>2022-06-09T16:47:20Z</time>
      </trkpt>
      <trkpt lat="47.71068" lon="3.68366">
        <ele>299.36</ele>
        <time>2022-06-09T16:47:23Z</time>
      </trkpt>
      <trkpt lat="47.71092" lon="3.68384">
        <ele>299.29</ele>
        <time>2022-06-09T16:47:26Z</time>
      </trkpt>
      <trkpt lat="47.71109" lon="3.68398">
        <ele>299.16</ele>
        <time>2022-06-09T16:47:28Z</time>
      </trkpt>
      <trkpt lat="47.71126" lon="3.68411">
        <ele>299.3</ele>
        <time>2022-06-09T16:47:30Z</time>
      </trkpt>
      <trkpt lat="47.71145" lon="3.68421">
        <ele>299.24</ele>
        <time>2022-06-09T16:47:32Z</time>
      </trkpt>
      <trkpt lat="47.71163" lon="3.68432">
        <ele>298.87</ele>
        <time>2022-06-09T16:47:34Z</time>
      </trkpt>
      <trkpt lat="47.71181" lon="3.6844">
        <ele>298.48</ele>
        <time>2022-06-09T16:47:36Z</time>
      </trkpt>
      <trkpt lat="47.71207" lon="3.68445">
        <ele>297.98</ele>
        <time>2022-06-09T16:47:39Z</time>
      </trkpt>
      <trkpt lat="47.71231" lon="3.68447">
        <ele>298.18</ele>
        <time>2022-06-09T16:47:42Z</time>
      </trkpt>
      <trkpt lat="47.71257" lon="3.68442">
        <ele>297.7</ele>
        <time>2022-06-09T16:47:45Z</time>
      </trkpt>
      <trkpt lat="47.71277" lon="3.68435">
        <ele>297.28</ele>
        <time>2022-06-09T16:47:47Z</time>
      </trkpt>
      <trkpt lat="47.71301" lon="3.68425">
        <ele>296.73</ele>
        <time>2022-06-09T16:47:49Z</time>
      </trkpt>
      <trkpt lat="47.71326" lon="3.68416">
        <ele>295.67</ele>
        <time>2022-06-09T16:47:51Z</time>
      </trkpt>
      <trkpt lat="47.71353" lon="3.68406">
        <ele>294.86</ele>
        <time>2022-06-09T16:47:53Z</time>
      </trkpt>
      <trkpt lat="47.7138" lon="3.68395">
        <ele>294.1</ele>
        <time>2022-06-09T16:47:55Z</time>
      </trkpt>
      <trkpt lat="47.71407" lon="3.68384">
        <ele>292.97</ele>
        <time>2022-06-09T16:47:57Z</time>
      </trkpt>
      <trkpt lat="47.71433" lon="3.68374">
        <ele>292.23</ele>
        <time>2022-06-09T16:47:59Z</time>
      </trkpt>
      <trkpt lat="47.71458" lon="3.68367">
        <ele>291.36</ele>
        <time>2022-06-09T16:48:01Z</time>
      </trkpt>
      <trkpt lat="47.71483" lon="3.68356">
        <ele>290.05</ele>
        <time>2022-06-09T16:48:03Z</time>
      </trkpt>
      <trkpt lat="47.71508" lon="3.6834">
        <ele>289.09</ele>
        <time>2022-06-09T16:48:05Z</time>
      </trkpt>
      <trkpt lat="47.71531" lon="3.68324">
        <ele>288.26</ele>
        <time>2022-06-09T16:48:07Z</time>
      </trkpt>
      <trkpt lat="47.71553" lon="3.68308">
        <ele>287.31</ele>
        <time>2022-06-09T16:48:09Z</time>
      </trkpt>
      <trkpt lat="47.71573" lon="3.68292">
        <ele>286.35</ele>
        <time>2022-06-09T16:48:11Z</time>
      </trkpt>
      <trkpt lat="47.7159" lon="3.68275">
        <ele>285.45</ele>
        <time>2022-06-09T16:48:13Z</time>
      </trkpt>
      <trkpt lat="47.7161" lon="3.68255">
        <ele>284.25</ele>
        <time>2022-06-09T16:48:16Z</time>
      </trkpt>
      <trkpt lat="47.71625" lon="3.6827">
        <ele>284.37</ele>
        <time>2022-06-09T16:48:21Z</time>
      </trkpt>
      <trkpt lat="47.71625" lon="3.68303">
        <ele>284.76</ele>
        <time>2022-06-09T16:48:25Z</time>
      </trkpt>
      <trkpt lat="47.71624" lon="3.6833">
        <ele>285.39</ele>
        <time>2022-06-09T16:48:28Z</time>
      </trkpt>
      <trkpt lat="47.71644" lon="3.68329">
        <ele>286.01</ele>
        <time>2022-06-09T16:48:33Z</time>
      </trkpt>
      <trkpt lat="47.71666" lon="3.68306">
        <ele>285.58</ele>
        <time>2022-06-09T16:48:36Z</time>
      </trkpt>
      <trkpt lat="47.71684" lon="3.68286">
        <ele>285.15</ele>
        <time>2022-06-09T16:48:38Z</time>
      </trkpt>
      <trkpt lat="47.71706" lon="3.68264">
        <ele>283.89</ele>
        <time>2022-06-09T16:48:40Z</time>
      </trkpt>
      <trkpt lat="47.71728" lon="3.68241">
        <ele>282.39</ele>
        <time>2022-06-09T16:48:42Z</time>
      </trkpt>
      <trkpt lat="47.7175" lon="3.68218">
        <ele>280.84</ele>
        <time>2022-06-09T16:48:44Z</time>
      </trkpt>
      <trkpt lat="47.71771" lon="3.68197">
        <ele>279.66</ele>
        <time>2022-06-09T16:48:46Z</time>
      </trkpt>
      <trkpt lat="47.71789" lon="3.68178">
        <ele>278.35</ele>
        <time>2022-06-09T16:48:48Z</time>
      </trkpt>
      <trkpt lat="47.71808" lon="3.68158">
        <ele>275.99</ele>
        <time>2022-06-09T16:48:51Z</time>
      </trkpt>
    </trkseg>
  </trk>
</gpx>